createdAt,value
2019-02-07T00:01:24.827Z,32.20
2019-02-07T00:02:59.569Z,35.60
2019-02-07T00:04:34.541Z,33.13
2019-02-07T00:06:09.669Z,35.58
2019-02-07T00:07:44.292Z,31.42
2019-02-07T00:09:19.061Z,35.10
2019-02-07T00:10:54.170Z,36.68
2019-02-07T00:12:28.687Z,36.93
2019-02-07T00:14:03.744Z,37.67
2019-02-07T00:15:38.222Z,36.85
2019-02-07T00:17:12.610Z,33.67
2019-02-07T00:18:46.977Z,40.45
2019-02-07T00:20:21.696Z,35.45
2019-02-07T00:21:56.185Z,38.78
2019-02-07T00:23:31.453Z,38.85
2019-02-07T00:25:07.018Z,40.95
2019-02-07T00:26:41.780Z,41.90
2019-02-07T00:28:16.304Z,41.05
2019-02-07T00:29:50.924Z,40.95
2019-02-07T00:31:25.517Z,43.65
2019-02-07T00:32:59.922Z,43.20
2019-02-07T00:34:34.462Z,44.55
2019-02-07T00:36:09.554Z,47.03
2019-02-07T00:37:44.401Z,46.35
2019-02-07T00:39:19.119Z,49.98
2019-02-07T00:40:53.940Z,44.70
2019-02-07T00:42:28.329Z,48.68
2019-02-07T00:44:02.900Z,39.60
2019-02-07T00:45:37.498Z,42.65
2019-02-07T00:47:11.941Z,40.80
2019-02-07T00:48:46.788Z,42.90
2019-02-07T00:50:21.265Z,42.55
2019-02-07T00:51:56.115Z,40.17
2019-02-07T00:53:30.938Z,42.85
2019-02-07T00:55:08.935Z,41.13
2019-02-07T00:56:44.034Z,40.75
2019-02-07T00:58:19.105Z,42.15
2019-02-07T00:59:54.063Z,42.00
2019-02-07T01:01:29.834Z,36.80
2019-02-07T01:03:04.733Z,41.63
2019-02-07T01:04:39.678Z,42.33
2019-02-07T01:06:14.618Z,43.73
2019-02-07T01:07:49.764Z,43.55
2019-02-07T01:09:25.291Z,44.60
2019-02-07T01:11:00.191Z,41.23
2019-02-07T01:12:35.439Z,41.95
2019-02-07T01:14:10.260Z,42.55
2019-02-07T01:15:45.147Z,44.40
2019-02-07T01:17:20.116Z,40.92
2019-02-07T01:18:54.550Z,38.17
2019-02-07T01:20:29.530Z,42.83
2019-02-07T01:22:04.664Z,45.05
2019-02-07T01:23:39.697Z,43.13
2019-02-07T01:25:16.798Z,40.35
2019-02-07T01:26:51.343Z,44.88
2019-02-07T01:28:25.792Z,41.73
2019-02-07T01:30:00.824Z,42.00
2019-02-07T01:31:35.483Z,41.30
2019-02-07T01:33:10.015Z,40.50
2019-02-07T01:34:44.582Z,42.40
2019-02-07T01:36:19.429Z,47.73
2019-02-07T01:37:54.255Z,39.83
2019-02-07T01:39:28.669Z,44.33
2019-02-07T01:41:03.295Z,45.60
2019-02-07T01:42:38.171Z,42.80
2019-02-07T01:44:13.208Z,39.85
2019-02-07T01:45:48.062Z,40.33
2019-02-07T01:47:23.067Z,37.85
2019-02-07T01:48:57.885Z,41.42
2019-02-07T01:50:32.440Z,40.98
2019-02-07T01:52:07.324Z,38.75
2019-02-07T01:53:42.069Z,37.42
2019-02-07T01:55:16.664Z,37.65
2019-02-07T01:56:51.418Z,39.33
2019-02-07T01:58:26.395Z,35.08
2019-02-07T02:00:01.694Z,35.68
2019-02-07T02:01:36.225Z,36.80
2019-02-07T02:03:10.629Z,36.35
2019-02-07T02:04:45.343Z,36.70
2019-02-07T02:06:19.822Z,39.35
2019-02-07T02:07:54.380Z,37.83
2019-02-07T02:09:28.932Z,36.63
2019-02-07T02:11:03.741Z,39.78
2019-02-07T02:12:38.579Z,34.50
2019-02-07T02:14:13.435Z,36.28
2019-02-07T02:15:47.902Z,37.70
2019-02-07T02:17:22.654Z,38.17
2019-02-07T02:18:57.449Z,38.80
2019-02-07T02:20:32.351Z,38.48
2019-02-07T02:22:06.967Z,39.55
2019-02-07T02:23:41.430Z,38.00
2019-02-07T02:25:16.651Z,37.53
2019-02-07T02:26:51.163Z,36.80
2019-02-07T02:28:25.899Z,36.30
2019-02-07T02:30:00.777Z,37.83
2019-02-07T02:31:35.432Z,40.25
2019-02-07T02:33:10.329Z,40.40
2019-02-07T02:34:45.233Z,36.15
2019-02-07T02:36:20.139Z,37.23
2019-02-07T02:37:55.415Z,36.35
2019-02-07T02:39:30.252Z,37.48
2019-02-07T02:41:05.188Z,38.45
2019-02-07T02:42:40.087Z,37.42
2019-02-07T02:44:15.063Z,36.15
2019-02-07T02:45:49.927Z,35.83
2019-02-07T02:47:24.975Z,37.60
2019-02-07T02:48:59.823Z,39.25
2019-02-07T02:50:35.192Z,36.42
2019-02-07T02:52:10.380Z,36.85
2019-02-07T02:53:45.460Z,36.98
2019-02-07T02:55:28.423Z,39.30
2019-02-07T02:57:03.926Z,36.38
2019-02-07T02:58:39.252Z,36.03
2019-02-07T03:00:20.998Z,36.88
2019-02-07T03:02:04.529Z,35.83
2019-02-07T03:04:07.681Z,32.58
2019-02-07T03:05:56.147Z,32.30
2019-02-07T03:07:49.465Z,35.90
2019-02-07T03:09:37.505Z,34.88
2019-02-07T03:11:22.815Z,39.15
2019-02-07T03:13:21.769Z,40.48
2019-02-07T03:15:11.618Z,41.90
2019-02-07T03:17:04.254Z,42.48
2019-02-07T03:18:57.334Z,42.55
2019-02-07T03:20:45.602Z,40.80
2019-02-07T03:22:48.663Z,40.85
2019-02-07T03:24:42.497Z,38.00
2019-02-07T03:26:38.501Z,41.20
2019-02-07T03:28:31.796Z,39.30
2019-02-07T03:30:26.588Z,40.48
2019-02-07T03:32:08.990Z,41.28
2019-02-07T03:34:01.829Z,42.08
2019-02-07T03:36:14.330Z,45.33
2019-02-07T03:38:17.822Z,40.65
2019-02-07T03:40:02.577Z,37.60
2019-02-07T03:41:47.944Z,43.28
2019-02-07T03:43:40.811Z,41.75
2019-02-07T03:45:33.689Z,44.77
2019-02-07T03:47:33.189Z,41.80
2019-02-07T03:49:20.402Z,43.78
2019-02-07T03:51:11.572Z,39.55
2019-02-07T03:52:57.575Z,42.00
2019-02-07T03:54:51.650Z,43.30
2019-02-07T03:56:45.480Z,42.30
2019-02-07T03:58:42.698Z,40.23
2019-02-07T04:00:40.432Z,43.38
2019-02-07T04:02:33.437Z,41.30
2019-02-07T04:04:34.602Z,42.48
2019-02-07T04:06:46.844Z,39.83
2019-02-07T04:08:39.670Z,42.73
2019-02-07T04:10:31.411Z,39.92
2019-02-07T04:12:14.534Z,41.75
2019-02-07T04:14:14.663Z,44.33
2019-02-07T04:16:15.166Z,47.05
2019-02-07T04:17:59.782Z,40.92
2019-02-07T04:19:50.522Z,43.25
2019-02-07T04:21:40.229Z,43.00
2019-02-07T04:23:34.279Z,43.98
2019-02-07T04:25:22.665Z,43.38
2019-02-07T04:27:14.601Z,43.92
2019-02-07T04:29:20.903Z,40.85
2019-02-07T04:31:05.623Z,40.85
2019-02-07T04:32:58.772Z,40.45
2019-02-07T04:34:52.011Z,42.58
2019-02-07T04:36:34.905Z,39.38
2019-02-07T04:38:27.353Z,39.23
2019-02-07T04:40:13.645Z,41.50
2019-02-07T04:42:04.359Z,38.05
2019-02-07T04:43:57.357Z,40.30
2019-02-07T04:45:54.346Z,41.18
2019-02-07T04:47:46.776Z,37.88
2019-02-07T04:49:36.717Z,38.95
2019-02-07T04:51:23.459Z,39.45
2019-02-07T04:53:13.866Z,37.95
2019-02-07T04:55:06.430Z,36.85
2019-02-07T04:56:50.285Z,35.65
2019-02-07T04:58:43.882Z,39.03
2019-02-07T05:00:33.472Z,40.98
2019-02-07T05:02:21.282Z,37.95
2019-02-07T05:04:19.246Z,36.35
2019-02-07T05:06:03.984Z,37.95
2019-02-07T05:08:01.922Z,36.80
2019-02-07T05:09:54.503Z,36.48
2019-02-07T05:11:42.733Z,36.48
2019-02-07T05:13:35.409Z,37.88
2019-02-07T05:15:33.095Z,37.65
2019-02-07T05:17:30.030Z,36.13
2019-02-07T05:19:22.696Z,36.00
2019-02-07T05:21:15.597Z,33.85
2019-02-07T05:23:12.459Z,39.13
2019-02-07T05:25:09.269Z,36.80
2019-02-07T05:27:03.078Z,32.58
2019-02-07T05:28:49.823Z,33.30
2019-02-07T05:30:33.813Z,34.40
2019-02-07T05:32:19.835Z,33.45
2019-02-07T05:34:13.615Z,31.52
2019-02-07T05:36:06.618Z,36.95
2019-02-07T05:37:59.482Z,34.53
2019-02-07T05:40:01.155Z,32.95
2019-02-07T05:41:55.484Z,31.80
2019-02-07T05:43:40.469Z,33.83
2019-02-07T05:45:22.487Z,36.88
2019-02-07T05:47:05.824Z,32.40
2019-02-07T05:48:58.561Z,33.45
2019-02-07T05:50:57.482Z,31.95
2019-02-07T05:52:57.967Z,34.67
2019-02-07T05:54:50.873Z,34.05
2019-02-07T05:56:43.465Z,38.65
2019-02-07T05:58:37.872Z,38.73
2019-02-07T06:00:35.279Z,36.05
2019-02-07T06:02:41.512Z,41.00
2019-02-07T06:04:34.321Z,34.15
2019-02-07T06:06:34.529Z,34.98
2019-02-07T06:08:30.513Z,34.98
2019-02-07T06:10:23.083Z,31.90
2019-02-07T06:12:23.599Z,34.60
2019-02-07T06:14:16.300Z,38.08
2019-02-07T06:16:10.639Z,36.30
2019-02-07T06:18:03.413Z,34.70
2019-02-07T06:19:58.450Z,33.15
2019-02-07T06:21:39.431Z,33.88
2019-02-07T06:23:32.582Z,34.00
2019-02-07T06:25:45.853Z,33.00
2019-02-07T06:27:41.297Z,37.65
2019-02-07T06:29:46.249Z,34.08
2019-02-07T06:31:38.866Z,32.50
2019-02-07T06:33:32.996Z,33.25
2019-02-07T06:35:25.998Z,32.53
2019-02-07T06:37:18.788Z,34.83
2019-02-07T06:39:11.355Z,30.85
2019-02-07T06:41:10.583Z,32.67
2019-02-07T06:42:53.511Z,28.30
2019-02-07T06:44:50.027Z,34.80
2019-02-07T06:46:36.428Z,33.60
2019-02-07T06:48:39.960Z,33.05
2019-02-07T06:50:37.458Z,34.48
2019-02-07T06:52:40.291Z,31.73
2019-02-07T06:54:32.877Z,33.55
2019-02-07T06:56:35.456Z,35.52
2019-02-07T06:58:29.298Z,28.98
2019-02-07T07:00:17.567Z,30.62
2019-02-07T07:02:02.148Z,25.92
2019-02-07T07:03:48.922Z,31.02
2019-02-07T07:05:40.084Z,28.60
2019-02-07T07:07:40.856Z,27.52
2019-02-07T07:09:25.515Z,27.82
2019-02-07T07:11:11.214Z,28.55
2019-02-07T07:12:55.569Z,29.25
2019-02-07T07:14:52.701Z,25.32
2019-02-07T07:16:41.042Z,27.58
2019-02-07T07:18:26.834Z,24.32
2019-02-07T07:20:17.484Z,24.90
2019-02-07T07:22:04.429Z,24.70
2019-02-07T07:23:56.855Z,26.52
2019-02-07T07:26:01.477Z,23.65
2019-02-07T07:27:53.568Z,22.42
2019-02-07T07:29:51.014Z,32.28
2019-02-07T07:31:53.834Z,25.08
2019-02-07T07:34:00.103Z,25.27
2019-02-07T07:36:06.377Z,25.77
2019-02-07T07:37:51.929Z,23.65
2019-02-07T07:39:45.101Z,24.70
2019-02-07T07:41:37.576Z,24.60
2019-02-07T07:43:37.471Z,24.35
2019-02-07T07:45:33.443Z,23.12
2019-02-07T07:47:36.019Z,23.30
2019-02-07T07:49:28.090Z,27.00
2019-02-07T07:51:11.009Z,24.60
2019-02-07T07:53:01.373Z,25.32
2019-02-07T07:54:55.615Z,28.05
2019-02-07T07:56:54.205Z,25.45
2019-02-07T07:59:06.708Z,25.02
2019-02-07T08:00:56.692Z,26.73
2019-02-07T08:02:50.542Z,26.85
2019-02-07T08:04:44.374Z,22.67
2019-02-07T08:06:36.878Z,24.60
2019-02-07T08:08:29.926Z,24.87
2019-02-07T08:10:24.664Z,24.50
2019-02-07T08:12:24.843Z,25.20
2019-02-07T08:14:27.493Z,23.73
2019-02-07T08:16:16.829Z,24.35
2019-02-07T08:18:10.034Z,22.87
2019-02-07T08:19:54.793Z,23.20
2019-02-07T08:21:51.432Z,24.75
2019-02-07T08:23:43.327Z,23.32
2019-02-07T08:25:36.185Z,22.93
2019-02-07T08:27:32.872Z,22.87
2019-02-07T08:29:29.455Z,25.70
2019-02-07T08:31:21.783Z,25.90
2019-02-07T08:33:17.670Z,21.60
2019-02-07T08:35:14.066Z,20.62
2019-02-07T08:37:17.574Z,22.10
2019-02-07T08:39:11.187Z,24.35
2019-02-07T08:40:55.658Z,25.02
2019-02-07T08:42:55.511Z,24.35
2019-02-07T08:44:57.528Z,23.87
2019-02-07T08:46:45.504Z,26.52
2019-02-07T08:48:42.265Z,25.77
2019-02-07T08:50:35.180Z,24.92
2019-02-07T08:52:37.756Z,23.75
2019-02-07T08:54:44.659Z,28.20
2019-02-07T08:56:36.364Z,20.97
2019-02-07T08:58:32.763Z,26.55
2019-02-07T09:00:26.777Z,24.70
2019-02-07T09:02:19.722Z,24.57
2019-02-07T09:04:12.230Z,23.25
2019-02-07T09:06:05.110Z,25.48
2019-02-07T09:07:54.682Z,24.43
2019-02-07T09:09:51.264Z,26.07
2019-02-07T09:11:44.658Z,24.67
2019-02-07T09:13:44.096Z,25.32
2019-02-07T09:15:46.994Z,25.92
2019-02-07T09:17:38.271Z,25.92
2019-02-07T09:19:31.651Z,24.47
2019-02-07T09:21:18.887Z,25.37
2019-02-07T09:23:01.549Z,23.83
2019-02-07T09:24:51.886Z,22.35
2019-02-07T09:26:50.954Z,24.47
2019-02-07T09:28:40.900Z,25.55
2019-02-07T09:30:43.490Z,22.45
2019-02-07T09:32:49.390Z,27.37
2019-02-07T09:34:34.190Z,24.55
2019-02-07T09:36:27.094Z,24.77
2019-02-07T09:38:36.747Z,25.00
2019-02-07T09:40:31.181Z,23.77
2019-02-07T09:42:28.779Z,24.87
2019-02-07T09:44:18.567Z,26.35
2019-02-07T09:46:13.040Z,29.75
2019-02-07T09:48:05.567Z,23.62
2019-02-07T09:49:46.875Z,26.40
2019-02-07T09:51:40.430Z,24.43
2019-02-07T09:53:29.390Z,26.68
2019-02-07T09:55:29.922Z,23.65
2019-02-07T09:57:13.654Z,25.60
2019-02-07T09:58:58.199Z,26.20
2019-02-07T10:00:38.433Z,27.27
2019-02-07T10:02:24.549Z,22.67
2019-02-07T10:04:22.928Z,30.02
2019-02-07T10:06:31.992Z,28.23
2019-02-07T10:08:29.437Z,27.22
2019-02-07T10:10:23.729Z,24.50
2019-02-07T10:12:20.355Z,22.58
2019-02-07T10:14:23.718Z,25.60
2019-02-07T10:16:21.262Z,26.02
2019-02-07T10:18:15.601Z,25.35
2019-02-07T10:20:00.268Z,26.42
2019-02-07T10:22:09.251Z,27.15
2019-02-07T10:23:50.504Z,29.70
2019-02-07T10:25:44.278Z,24.35
2019-02-07T10:27:41.796Z,27.40
2019-02-07T10:29:24.731Z,30.25
2019-02-07T10:31:14.152Z,28.75
2019-02-07T10:33:16.995Z,28.87
2019-02-07T10:34:58.811Z,29.05
2019-02-07T10:36:43.308Z,25.92
2019-02-07T10:38:46.567Z,28.00
2019-02-07T10:40:55.566Z,26.15
2019-02-07T10:42:41.657Z,27.60
2019-02-07T10:44:24.589Z,26.50
2019-02-07T10:46:10.752Z,28.98
2019-02-07T10:48:03.191Z,27.87
2019-02-07T10:50:15.114Z,25.92
2019-02-07T10:52:08.867Z,28.87
2019-02-07T10:54:06.162Z,23.65
2019-02-07T10:55:58.864Z,19.67
2019-02-07T10:57:52.028Z,27.02
2019-02-07T10:59:46.243Z,29.40
2019-02-07T11:01:45.679Z,26.23
2019-02-07T11:03:30.377Z,24.00
2019-02-07T11:05:29.166Z,27.95
2019-02-07T11:07:21.905Z,23.35
2019-02-07T11:09:27.546Z,23.07
2019-02-07T11:11:09.240Z,23.35
2019-02-07T11:13:00.066Z,22.93
2019-02-07T11:14:52.462Z,24.37
2019-02-07T11:16:45.047Z,23.18
2019-02-07T11:18:41.315Z,24.27
2019-02-07T11:20:34.770Z,26.07
2019-02-07T11:22:24.956Z,22.98
2019-02-07T11:24:31.037Z,20.62
2019-02-07T11:26:24.302Z,21.60
2019-02-07T11:28:21.491Z,21.70
2019-02-07T11:30:08.592Z,20.55
2019-02-07T11:32:01.474Z,23.10
2019-02-07T11:33:54.199Z,26.45
2019-02-07T11:35:46.949Z,23.57
2019-02-07T11:37:43.822Z,23.07
2019-02-07T11:39:37.064Z,23.85
2019-02-07T11:41:29.566Z,22.30
2019-02-07T11:43:26.360Z,21.95
2019-02-07T11:45:14.985Z,23.40
2019-02-07T11:47:09.639Z,22.20
2019-02-07T11:49:06.298Z,24.87
2019-02-07T11:51:06.486Z,26.60
2019-02-07T11:52:59.313Z,28.10
2019-02-07T11:54:41.450Z,20.77
2019-02-07T11:56:34.205Z,24.43
2019-02-07T11:58:31.362Z,23.05
2019-02-07T12:00:23.933Z,21.60
2019-02-07T12:02:29.886Z,21.87
2019-02-07T12:04:15.481Z,27.77
2019-02-07T12:06:15.151Z,24.67
2019-02-07T12:08:12.222Z,20.45
2019-02-07T12:10:05.034Z,29.37
2019-02-07T12:12:11.365Z,24.32
2019-02-07T12:13:55.638Z,24.80
2019-02-07T12:15:57.898Z,26.57
2019-02-07T12:17:42.842Z,28.20
2019-02-07T12:19:33.566Z,24.37
2019-02-07T12:21:25.701Z,28.38
2019-02-07T12:23:17.956Z,26.97
2019-02-07T12:25:14.550Z,25.43
2019-02-07T12:26:58.230Z,28.75
2019-02-07T12:28:55.037Z,29.30
2019-02-07T12:30:56.366Z,28.17
2019-02-07T12:32:59.035Z,31.17
2019-02-07T12:35:02.207Z,29.80
2019-02-07T12:36:56.075Z,31.90
2019-02-07T12:38:58.739Z,29.37
2019-02-07T12:40:50.789Z,31.17
2019-02-07T12:42:37.350Z,29.05
2019-02-07T12:44:37.232Z,29.70
2019-02-07T12:46:24.554Z,30.52
2019-02-07T12:48:08.654Z,27.10
2019-02-07T12:50:01.305Z,29.77
2019-02-07T12:51:54.867Z,32.13
2019-02-07T12:53:57.904Z,29.05
2019-02-07T12:56:00.688Z,26.95
2019-02-07T12:58:12.930Z,27.07
2019-02-07T13:00:14.235Z,30.57
2019-02-07T13:01:59.461Z,31.15
2019-02-07T13:03:59.186Z,28.62
2019-02-07T13:05:56.319Z,29.63
2019-02-07T13:07:48.463Z,28.45
2019-02-07T13:09:41.123Z,29.65
2019-02-07T13:11:44.356Z,28.02
2019-02-07T13:13:29.637Z,26.77
2019-02-07T13:15:36.710Z,27.25
2019-02-07T13:17:34.666Z,31.10
2019-02-07T13:19:19.153Z,27.30
2019-02-07T13:21:07.241Z,31.42
2019-02-07T13:23:01.192Z,28.92
2019-02-07T13:24:47.106Z,26.60
2019-02-07T13:26:41.125Z,28.62
2019-02-07T13:28:34.349Z,30.37
2019-02-07T13:30:34.365Z,30.60
2019-02-07T13:32:28.456Z,30.52
2019-02-07T13:34:21.067Z,27.95
2019-02-07T13:36:25.081Z,29.45
2019-02-07T13:38:21.743Z,31.17
2019-02-07T13:40:25.882Z,30.15
2019-02-07T13:42:18.512Z,32.45
2019-02-07T13:44:10.955Z,31.85
2019-02-07T13:46:04.367Z,29.10
2019-02-07T13:47:56.855Z,30.52
2019-02-07T13:50:05.725Z,33.58
2019-02-07T13:51:52.454Z,31.30
2019-02-07T13:53:36.377Z,30.77
2019-02-07T13:55:26.123Z,30.23
2019-02-07T13:57:11.498Z,28.10
2019-02-07T13:59:03.367Z,30.27
2019-02-07T14:01:03.258Z,32.25
2019-02-07T14:02:56.062Z,29.12
2019-02-07T14:04:52.082Z,29.10
2019-02-07T14:06:51.739Z,29.25
2019-02-07T14:08:54.596Z,31.52
2019-02-07T14:10:47.773Z,32.13
2019-02-07T14:12:39.962Z,34.00
2019-02-07T14:14:22.014Z,29.45
2019-02-07T14:16:24.857Z,32.75
2019-02-07T14:18:24.561Z,29.75
2019-02-07T14:20:17.074Z,33.53
2019-02-07T14:22:12.273Z,30.70
2019-02-07T14:24:12.547Z,30.00
2019-02-07T14:26:07.371Z,30.52
2019-02-07T14:27:56.311Z,32.33
2019-02-07T14:29:40.578Z,31.42
2019-02-07T14:31:38.238Z,30.90
2019-02-07T14:33:29.404Z,30.40
2019-02-07T14:35:22.437Z,28.52
2019-02-07T14:37:28.358Z,29.52
2019-02-07T14:39:22.189Z,33.60
2019-02-07T14:41:34.149Z,29.75
2019-02-07T14:43:29.306Z,28.77
2019-02-07T14:45:32.213Z,30.23
2019-02-07T14:47:06.734Z,29.82
2019-02-07T14:48:42.139Z,27.85
2019-02-07T14:50:16.523Z,29.70
2019-02-07T14:51:51.588Z,31.20
2019-02-07T14:53:26.113Z,32.17
2019-02-07T14:55:00.831Z,27.35
2019-02-07T14:56:35.216Z,30.62
2019-02-07T14:58:09.755Z,29.60
2019-02-07T14:59:44.575Z,31.55
2019-02-07T15:01:19.224Z,27.82
2019-02-07T15:02:53.757Z,32.63
2019-02-07T15:04:28.480Z,30.27
2019-02-07T15:06:03.257Z,29.90
2019-02-07T15:07:37.698Z,29.67
2019-02-07T15:09:16.915Z,35.13
2019-02-07T15:10:51.522Z,29.15
2019-02-07T15:12:26.166Z,33.78
2019-02-07T15:14:00.978Z,32.55
2019-02-07T15:15:35.677Z,30.05
2019-02-07T15:17:10.126Z,30.52
2019-02-07T15:18:46.142Z,30.97
2019-02-07T15:20:26.236Z,30.52
2019-02-07T15:21:56.914Z,36.17
2019-02-07T15:23:31.651Z,32.60
2019-02-07T15:25:07.031Z,34.55
2019-02-07T15:26:42.051Z,31.70
2019-02-07T15:28:17.138Z,33.08
2019-02-07T15:29:51.940Z,33.60
2019-02-07T15:31:27.030Z,32.00
2019-02-07T15:33:01.835Z,32.17
2019-02-07T15:34:36.655Z,32.85
2019-02-07T15:36:12.899Z,33.67
2019-02-07T15:37:48.094Z,35.88
2019-02-07T15:39:23.335Z,35.55
2019-02-07T15:40:58.137Z,37.23
2019-02-07T15:42:33.081Z,33.92
2019-02-07T15:44:08.394Z,34.75
2019-02-07T15:45:43.438Z,36.83
2019-02-07T15:47:18.497Z,33.85
2019-02-07T15:48:53.326Z,37.42
2019-02-07T15:50:37.825Z,36.33
2019-02-07T15:52:05.176Z,33.92
2019-02-07T15:53:40.044Z,35.73
2019-02-07T15:55:16.030Z,35.23
2019-02-07T15:56:50.904Z,34.67
2019-02-07T15:58:36.868Z,35.40
2019-02-07T16:00:33.794Z,34.18
2019-02-07T16:02:30.655Z,34.05
2019-02-07T16:04:24.655Z,39.48
2019-02-07T16:05:59.103Z,36.38
2019-02-07T16:07:33.490Z,30.97
2019-02-07T16:09:09.498Z,36.10
2019-02-07T16:10:43.896Z,32.88
2019-02-07T16:12:18.667Z,36.25
2019-02-07T16:13:53.260Z,33.15
2019-02-07T16:15:27.865Z,34.78
2019-02-07T16:17:02.542Z,37.38
2019-02-07T16:18:36.980Z,35.55
2019-02-07T16:20:14.430Z,35.23
2019-02-07T16:21:49.145Z,35.68
2019-02-07T16:23:23.675Z,35.45
2019-02-07T16:24:58.218Z,34.45
2019-02-07T16:26:32.927Z,36.20
2019-02-07T16:28:07.431Z,37.45
2019-02-07T16:29:42.234Z,33.08
2019-02-07T16:31:17.152Z,35.45
2019-02-07T16:32:52.074Z,34.55
2019-02-07T16:34:27.616Z,39.67
2019-02-07T16:36:02.075Z,35.10
2019-02-07T16:37:36.878Z,36.13
2019-02-07T16:39:11.411Z,38.55
2019-02-07T16:40:45.959Z,36.20
2019-02-07T16:42:20.794Z,39.08
2019-02-07T16:43:55.440Z,35.92
2019-02-07T16:45:29.987Z,36.63
2019-02-07T16:47:05.064Z,38.13
2019-02-07T16:48:39.715Z,43.33
2019-02-07T16:50:16.061Z,42.03
2019-02-07T16:51:50.614Z,35.33
2019-02-07T16:53:25.673Z,39.63
2019-02-07T16:55:00.534Z,42.35
2019-02-07T16:56:35.449Z,38.40
2019-02-07T16:58:10.160Z,39.35
2019-02-07T16:59:45.043Z,39.58
2019-02-07T17:01:19.744Z,43.25
2019-02-07T17:02:55.350Z,41.60
2019-02-07T17:04:30.132Z,47.93
2019-02-07T17:06:05.641Z,41.23
2019-02-07T17:07:40.094Z,43.40
2019-02-07T17:09:30.599Z,40.28
2019-02-07T17:11:05.899Z,39.35
2019-02-07T17:12:40.494Z,41.55
2019-02-07T17:14:15.198Z,39.95
2019-02-07T17:15:50.042Z,44.27
2019-02-07T17:17:24.467Z,48.87
2019-02-07T17:18:59.143Z,47.30
2019-02-07T17:20:33.789Z,48.90
2019-02-07T17:22:08.586Z,47.65
2019-02-07T17:23:43.420Z,48.52
2019-02-07T17:25:18.010Z,44.20
2019-02-07T17:26:52.467Z,45.17
2019-02-07T17:28:27.555Z,41.98
2019-02-07T17:30:02.036Z,45.70
2019-02-07T17:31:36.583Z,41.18
2019-02-07T17:33:11.211Z,45.65
2019-02-07T17:34:46.104Z,41.15
2019-02-07T17:36:20.558Z,46.75
2019-02-07T17:37:55.559Z,40.63
2019-02-07T17:39:30.050Z,38.80
2019-02-07T17:41:05.104Z,39.95
2019-02-07T17:42:39.478Z,46.05
2019-02-07T17:44:14.002Z,40.88
2019-02-07T17:45:49.045Z,39.83
2019-02-07T17:47:23.503Z,42.27
2019-02-07T17:48:57.944Z,41.80
2019-02-07T17:50:33.194Z,41.77
2019-02-07T17:52:07.822Z,42.15
2019-02-07T17:53:42.595Z,44.70
2019-02-07T17:55:17.879Z,43.02
2019-02-07T17:56:52.554Z,42.50
2019-02-07T17:58:27.127Z,41.50
2019-02-07T18:00:01.612Z,44.18
2019-02-07T18:01:36.226Z,39.80
2019-02-07T18:03:10.700Z,40.70
2019-02-07T18:04:45.358Z,43.28
2019-02-07T18:06:20.358Z,41.33
2019-02-07T18:07:55.084Z,39.55
2019-02-07T18:09:29.627Z,44.67
2019-02-07T18:11:05.446Z,41.53
2019-02-07T18:12:39.830Z,40.30
2019-02-07T18:14:14.536Z,42.23
2019-02-07T18:15:49.427Z,43.52
2019-02-07T18:17:24.158Z,43.40
2019-02-07T18:18:58.618Z,46.23
2019-02-07T18:20:33.078Z,40.30
2019-02-07T18:22:07.802Z,41.28
2019-02-07T18:23:42.649Z,39.13
2019-02-07T18:25:17.345Z,41.83
2019-02-07T18:26:51.995Z,45.58
2019-02-07T18:28:26.862Z,42.62
2019-02-07T18:30:01.689Z,43.25
2019-02-07T18:31:36.507Z,42.43
2019-02-07T18:33:10.951Z,43.00
2019-02-07T18:34:46.040Z,45.85
2019-02-07T18:36:22.085Z,38.63
2019-02-07T18:37:56.538Z,42.08
2019-02-07T18:39:31.145Z,44.73
2019-02-07T18:41:05.885Z,42.60
2019-02-07T18:42:40.531Z,43.25
2019-02-07T18:44:14.974Z,43.73
2019-02-07T18:45:50.119Z,43.00
2019-02-07T18:47:24.682Z,42.78
2019-02-07T18:48:59.352Z,42.93
2019-02-07T18:50:35.902Z,41.95
2019-02-07T18:52:10.414Z,40.58
2019-02-07T18:53:45.159Z,44.35
2019-02-07T18:55:19.702Z,43.50
2019-02-07T18:56:54.116Z,41.45
2019-02-07T18:58:28.551Z,49.73
2019-02-07T19:00:03.294Z,43.10
2019-02-07T19:01:37.977Z,43.10
2019-02-07T19:03:12.444Z,43.30
2019-02-07T19:04:46.877Z,44.65
2019-02-07T19:06:21.530Z,43.60
2019-02-07T19:07:56.094Z,44.00
2019-02-07T19:09:30.743Z,43.10
2019-02-07T19:11:05.187Z,44.23
2019-02-07T19:12:39.622Z,42.83
2019-02-07T19:14:14.410Z,47.13
2019-02-07T19:15:55.907Z,39.75
2019-02-07T19:17:30.782Z,42.20
2019-02-07T19:19:05.259Z,47.08
2019-02-07T19:20:39.818Z,43.25
2019-02-07T19:22:14.189Z,44.27
2019-02-07T19:23:48.642Z,40.83
2019-02-07T19:25:23.106Z,43.63
2019-02-07T19:26:57.804Z,44.70
2019-02-07T19:28:32.362Z,46.85
2019-02-07T19:30:11.025Z,46.50
2019-02-07T19:31:45.482Z,42.48
2019-02-07T19:33:22.501Z,46.33
2019-02-07T19:34:56.110Z,47.08
2019-02-07T19:36:30.526Z,47.23
2019-02-07T19:38:05.271Z,48.23
2019-02-07T19:39:39.898Z,44.67
2019-02-07T19:41:14.767Z,47.67
2019-02-07T19:42:49.686Z,41.40
2019-02-07T19:44:24.361Z,46.68
2019-02-07T19:45:59.026Z,47.50
2019-02-07T19:47:33.756Z,45.63
2019-02-07T19:49:08.354Z,52.80
2019-02-07T19:50:42.817Z,46.80
2019-02-07T19:52:17.706Z,42.08
2019-02-07T19:53:52.230Z,46.75
2019-02-07T19:55:28.500Z,46.15
2019-02-07T19:57:03.255Z,47.62
2019-02-07T19:58:37.890Z,44.77
2019-02-07T20:00:15.226Z,46.92
2019-02-07T20:01:49.929Z,44.38
2019-02-07T20:03:24.656Z,54.98
2019-02-07T20:04:59.193Z,46.28
2019-02-07T20:06:34.088Z,49.00
2019-02-07T20:08:08.786Z,47.08
2019-02-07T20:09:43.742Z,47.80
2019-02-07T20:11:18.177Z,43.63
2019-02-07T20:12:52.835Z,45.73
2019-02-07T20:14:27.622Z,47.23
2019-02-07T20:16:02.615Z,46.02
2019-02-07T20:17:37.158Z,48.95
2019-02-07T20:19:11.863Z,47.10
2019-02-07T20:20:46.310Z,47.38
2019-02-07T20:22:21.022Z,48.45
2019-02-07T20:23:55.463Z,51.83
2019-02-07T20:25:30.383Z,47.23
2019-02-07T20:27:05.429Z,50.17
2019-02-07T20:28:39.886Z,50.20
2019-02-07T20:30:20.451Z,48.00
2019-02-07T20:31:54.992Z,45.70
2019-02-07T20:33:29.449Z,47.85
2019-02-07T20:35:04.440Z,48.65
2019-02-07T20:36:38.886Z,54.45
2019-02-07T20:38:13.795Z,49.13
2019-02-07T20:39:48.646Z,51.28
2019-02-07T20:41:23.193Z,50.20
2019-02-07T20:42:57.801Z,51.30
2019-02-07T20:44:32.274Z,57.60
2019-02-07T20:46:06.794Z,52.67
2019-02-07T20:47:41.678Z,52.58
2019-02-07T20:49:16.461Z,47.13
2019-02-07T20:50:51.219Z,47.98
2019-02-07T20:52:27.382Z,48.48
2019-02-07T20:54:02.350Z,52.95
2019-02-07T20:55:36.911Z,55.88
2019-02-07T20:57:11.923Z,57.95
2019-02-07T20:58:46.743Z,50.90
2019-02-07T21:00:29.830Z,49.42
2019-02-07T21:02:04.407Z,53.65
2019-02-07T21:03:38.936Z,55.25
2019-02-07T21:05:13.784Z,55.58
2019-02-07T21:06:48.486Z,52.80
2019-02-07T21:08:23.386Z,54.80
2019-02-07T21:09:58.022Z,53.70
2019-02-07T21:11:32.748Z,54.27
2019-02-07T21:13:07.788Z,51.98
2019-02-07T21:14:42.530Z,53.70
2019-02-07T21:16:17.002Z,53.42
2019-02-07T21:17:51.605Z,53.48
2019-02-07T21:19:26.323Z,52.65
2019-02-07T21:21:00.799Z,56.77
2019-02-07T21:22:35.687Z,53.15
2019-02-07T21:24:10.402Z,54.53
2019-02-07T21:25:47.314Z,53.63
2019-02-07T21:27:21.874Z,55.35
2019-02-07T21:28:56.354Z,52.43
2019-02-07T21:30:31.298Z,50.98
2019-02-07T21:32:06.362Z,54.85
2019-02-07T21:33:40.817Z,51.05
2019-02-07T21:35:16.516Z,53.60
2019-02-07T21:36:51.231Z,53.75
2019-02-07T21:38:26.119Z,54.70
2019-02-07T21:40:00.902Z,57.03
2019-02-07T21:41:35.342Z,52.00
2019-02-07T21:43:09.898Z,55.80
2019-02-07T21:44:44.386Z,58.65
2019-02-07T21:46:18.854Z,56.80
2019-02-07T21:47:54.063Z,56.68
2019-02-07T21:49:28.713Z,55.55
2019-02-07T21:51:03.570Z,55.05
2019-02-07T21:52:42.039Z,54.55
2019-02-07T21:54:14.686Z,57.50
2019-02-07T21:55:49.448Z,55.78
2019-02-07T21:57:24.050Z,60.90
2019-02-07T21:58:58.773Z,60.25
2019-02-07T22:00:35.346Z,59.30
2019-02-07T22:02:10.102Z,55.33
2019-02-07T22:03:44.672Z,60.38
2019-02-07T22:05:19.589Z,60.70
2019-02-07T22:06:54.062Z,61.40
2019-02-07T22:08:28.511Z,52.93
2019-02-07T22:10:03.627Z,58.60
2019-02-07T22:11:38.059Z,60.45
2019-02-07T22:13:12.805Z,57.45
2019-02-07T22:14:47.520Z,57.62
2019-02-07T22:16:22.377Z,55.83
2019-02-07T22:17:56.846Z,59.18
2019-02-07T22:19:31.572Z,60.50
2019-02-07T22:21:06.410Z,57.60
2019-02-07T22:22:41.423Z,60.35